createdAt,value
2023-04-22T00:02:42.324Z,15.41
2023-04-22T00:06:42.859Z,15.50
2023-04-22T00:10:43.438Z,15.31
2023-04-22T00:14:46.755Z,15.47
2023-04-22T00:18:47.385Z,15.36
2023-04-22T00:22:47.844Z,15.22
2023-04-22T00:26:49.514Z,15.13
2023-04-22T00:30:52.822Z,15.14
2023-04-22T00:34:53.448Z,15.13
2023-04-22T00:38:54.926Z,15.30
2023-04-22T00:42:56.372Z,15.36
2023-04-22T00:47:00.775Z,15.35
2023-04-22T00:51:01.452Z,15.24
2023-04-22T00:55:01.912Z,15.20
2023-04-22T00:59:03.252Z,15.11
2023-04-22T01:03:09.501Z,14.99
2023-04-22T01:07:10.149Z,15.02
2023-04-22T01:11:11.051Z,15.02
2023-04-22T01:15:13.484Z,14.73
2023-04-22T01:19:17.770Z,14.59
2023-04-22T01:23:23.832Z,14.71
2023-04-22T01:27:24.729Z,14.86
2023-04-22T01:31:25.407Z,14.67
2023-04-22T01:35:25.953Z,14.60
2023-04-22T01:39:29.830Z,14.54
2023-04-22T01:43:30.948Z,14.49
2023-04-22T01:47:31.427Z,14.44
2023-04-22T01:51:32.646Z,14.48
2023-04-22T01:55:37.544Z,14.40
2023-04-22T01:59:38.310Z,14.19
2023-04-22T02:03:39.515Z,14.08
2023-04-22T02:07:40.497Z,14.16
2023-04-22T02:11:44.070Z,13.85
2023-04-22T02:15:45.580Z,13.89
2023-04-22T02:19:46.174Z,13.84
2023-04-22T02:23:46.827Z,13.82
2023-04-22T02:27:50.303Z,13.81
2023-04-22T02:31:50.970Z,13.86
2023-04-22T02:35:51.466Z,13.91
2023-04-22T02:39:52.652Z,13.89
2023-04-22T02:43:56.265Z,13.95
2023-04-22T02:47:56.734Z,13.95
2023-04-22T02:51:57.274Z,13.78
2023-04-22T02:55:58.730Z,13.62
2023-04-22T03:00:02.337Z,13.60
2023-04-22T03:04:03.228Z,13.60
2023-04-22T03:08:03.817Z,13.55
2023-04-22T03:12:05.399Z,13.61
2023-04-22T03:16:10.144Z,13.58
2023-04-22T03:20:12.981Z,13.41
2023-04-22T03:24:13.586Z,13.27
2023-04-22T03:28:20.903Z,13.27
2023-04-22T03:32:24.371Z,13.25
2023-04-22T03:36:35.024Z,13.22
2023-04-22T03:40:35.729Z,13.15
2023-04-22T03:44:43.042Z,13.24
2023-04-22T03:48:46.759Z,13.21
2023-04-22T03:52:57.440Z,13.09
2023-04-22T03:56:58.435Z,13.10
2023-04-22T04:01:00.038Z,13.10
2023-04-22T04:05:05.919Z,13.20
2023-04-22T04:09:06.794Z,13.17
2023-04-22T04:13:08.552Z,13.02
2023-04-22T04:17:21.954Z,13.21
2023-04-22T04:21:25.210Z,13.26
2023-04-22T04:25:26.815Z,13.19
2023-04-22T04:29:28.431Z,13.18
2023-04-22T04:33:42.673Z,12.94
2023-04-22T04:37:47.697Z,12.80
2023-04-22T04:41:49.210Z,12.65
2023-04-22T04:45:50.850Z,12.84
2023-04-22T04:49:58.872Z,12.76
2023-04-22T04:54:02.636Z,12.89
2023-04-22T04:58:09.665Z,12.98
2023-04-22T05:02:11.226Z,12.95
2023-04-22T05:06:13.770Z,13.08
2023-04-22T05:10:22.802Z,13.14
2023-04-22T05:14:23.429Z,13.12
2023-04-22T05:18:26.752Z,13.21
2023-04-22T05:22:28.590Z,13.26
2023-04-22T05:26:32.225Z,13.17
2023-04-22T05:30:35.129Z,13.30
2023-04-22T05:34:35.946Z,13.67
2023-04-22T05:38:36.677Z,13.81
2023-04-22T05:42:40.010Z,13.86
2023-04-22T05:46:40.867Z,14.06
2023-04-22T05:50:41.618Z,14.24
2023-04-22T05:54:42.795Z,14.57
2023-04-22T05:58:47.687Z,14.57
2023-04-22T06:02:52.309Z,14.74
2023-04-22T06:06:54.180Z,14.83
2023-04-22T06:10:54.843Z,14.91
2023-04-22T06:15:00.266Z,15.20
2023-04-22T06:19:01.202Z,15.27
2023-04-22T06:23:02.385Z,15.49
2023-04-22T06:27:03.354Z,15.76
2023-04-22T06:31:07.057Z,16.01
2023-04-22T06:35:08.708Z,16.30
2023-04-22T06:39:11.337Z,16.42
2023-04-22T06:43:49.936Z,16.51
2023-04-22T06:48:27.693Z,16.91
2023-04-22T06:52:54.183Z,17.18
2023-04-22T06:56:54.609Z,17.53
2023-04-22T07:00:54.936Z,17.83
2023-04-22T07:04:57.996Z,17.85
2023-04-22T07:08:58.228Z,18.44
2023-04-22T07:12:58.583Z,18.47
2023-04-22T07:16:58.978Z,18.86
2023-04-22T07:21:01.984Z,18.81
2023-04-22T07:25:02.263Z,18.90
2023-04-22T07:29:02.845Z,19.12
2023-04-22T07:33:03.100Z,19.35
2023-04-22T07:37:07.475Z,19.77
2023-04-22T07:41:08.034Z,20.07
2023-04-22T07:45:10.349Z,19.86
2023-04-22T07:49:10.675Z,20.15
2023-04-22T07:53:15.689Z,21.05
2023-04-22T07:57:15.944Z,21.73
2023-04-22T08:01:19.869Z,22.27
2023-04-22T08:05:20.663Z,22.86
2023-04-22T08:09:23.628Z,23.35
2023-04-22T08:13:23.918Z,23.88
2023-04-22T08:17:24.105Z,23.72
2023-04-22T08:21:24.248Z,24.13
2023-04-22T08:25:27.028Z,24.03
2023-04-22T08:29:27.808Z,24.25
2023-04-22T08:33:28.365Z,23.91
2023-04-22T08:37:29.069Z,23.59
2023-04-22T08:41:33.556Z,24.48
2023-04-22T08:45:34.940Z,25.07
2023-04-22T08:49:38.992Z,25.95
2023-04-22T08:53:39.424Z,26.33
2023-04-22T08:57:44.013Z,26.85
2023-04-22T09:01:45.736Z,28.01
2023-04-22T09:05:48.343Z,29.06
2023-04-22T09:09:49.024Z,28.29
2023-04-22T09:13:51.747Z,27.90
2023-04-22T09:17:55.203Z,28.07
2023-04-22T09:21:56.201Z,27.23
2023-04-22T09:25:59.702Z,27.70
2023-04-22T09:30:02.566Z,26.98
2023-04-22T09:34:03.679Z,27.96
2023-04-22T09:38:08.310Z,29.24
2023-04-22T09:42:08.948Z,29.33
2023-04-22T09:46:13.557Z,28.84
2023-04-22T09:50:15.211Z,30.83
2023-04-22T09:54:15.603Z,31.29
2023-04-22T09:58:18.323Z,32.17
2023-04-22T10:02:21.375Z,31.67
2023-04-22T10:06:21.669Z,31.09
2023-04-22T10:10:21.936Z,31.38
2023-04-22T10:14:22.212Z,29.80
2023-04-22T10:18:29.345Z,30.98
2023-04-22T10:22:31.617Z,31.37
2023-04-22T10:26:53.780Z,30.78
2023-04-22T10:30:55.440Z,32.18
2023-04-22T10:35:13.372Z,31.57
2023-04-22T10:39:22.382Z,32.19
2023-04-22T10:43:23.495Z,32.33
2023-04-22T10:47:32.181Z,32.21
2023-04-22T10:51:45.868Z,32.89
2023-04-22T10:55:56.407Z,32.78
2023-04-22T11:00:01.064Z,32.49
2023-04-22T11:04:23.871Z,33.74
2023-04-22T11:08:31.609Z,31.61
2023-04-22T11:12:47.944Z,32.04
2023-04-22T11:16:50.946Z,32.40
2023-04-22T11:20:53.781Z,33.09
2023-04-22T11:25:01.351Z,32.04
2023-04-22T11:29:03.314Z,33.23
2023-04-22T11:33:04.049Z,34.47
2023-04-22T11:37:04.357Z,35.94
2023-04-22T11:41:07.482Z,36.14
2023-04-22T11:45:10.667Z,36.91
2023-04-22T11:49:19.789Z,35.66
2023-04-22T11:53:24.329Z,34.77
2023-04-22T11:57:27.135Z,34.70
2023-04-22T12:01:27.289Z,36.07
2023-04-22T12:05:43.397Z,36.74
2023-04-22T12:09:43.592Z,35.25
2023-04-22T12:13:50.872Z,36.13
2023-04-22T12:17:54.099Z,35.45
2023-04-22T12:21:58.296Z,35.84
2023-04-22T12:25:58.582Z,34.62
2023-04-22T12:30:01.822Z,33.43
2023-04-22T12:34:02.432Z,33.96
2023-04-22T12:38:02.700Z,34.08
2023-04-22T12:42:02.886Z,34.01
2023-04-22T12:46:06.780Z,33.69
2023-04-22T12:50:09.186Z,32.27
2023-04-22T12:54:10.818Z,30.95
2023-04-22T12:58:11.484Z,31.65
2023-04-22T13:02:14.380Z,32.45
2023-04-22T13:06:14.982Z,32.31
2023-04-22T13:10:18.156Z,31.92
2023-04-22T13:14:18.395Z,32.95
2023-04-22T13:18:21.335Z,33.00
2023-04-22T13:22:22.004Z,33.58
2023-04-22T13:26:22.533Z,34.04
2023-04-22T13:30:22.913Z,34.49
2023-04-22T13:34:25.896Z,33.61
2023-04-22T13:38:26.546Z,33.28
2023-04-22T13:42:27.094Z,33.34
2023-04-22T13:46:28.331Z,33.56
2023-04-22T13:50:31.321Z,32.56
2023-04-22T13:54:31.652Z,33.13
2023-04-22T13:58:32.438Z,32.07
2023-04-22T14:02:32.722Z,31.98
2023-04-22T14:06:35.982Z,32.02
2023-04-22T14:10:36.223Z,33.84
2023-04-22T14:14:36.789Z,32.24
2023-04-22T14:18:38.716Z,33.37
2023-04-22T14:22:41.620Z,34.02
2023-04-22T14:26:41.854Z,34.00
2023-04-22T14:30:42.381Z,32.53
2023-04-22T14:34:42.757Z,33.10
2023-04-22T14:38:45.841Z,32.15
2023-04-22T14:42:46.355Z,31.98
2023-04-22T14:46:46.658Z,32.24
2023-04-22T14:50:47.104Z,31.47
2023-04-22T14:54:51.927Z,31.70
2023-04-22T14:58:52.318Z,31.59
2023-04-22T15:02:54.025Z,31.79
2023-04-22T15:06:57.696Z,32.20
2023-04-22T15:11:00.547Z,30.35
2023-04-22T15:15:00.684Z,30.24
2023-04-22T15:19:00.882Z,30.47
2023-04-22T15:23:01.027Z,30.76
2023-04-22T15:27:04.552Z,31.03
2023-04-22T15:31:05.703Z,30.69
2023-04-22T15:35:06.353Z,30.74
2023-04-22T15:39:10.845Z,31.10
2023-04-22T15:43:13.737Z,31.74
2023-04-22T15:47:14.225Z,31.27
2023-04-22T15:51:14.405Z,31.43
2023-04-22T15:55:15.198Z,31.46
2023-04-22T15:59:18.051Z,31.15
2023-04-22T16:03:18.318Z,31.33
2023-04-22T16:07:18.559Z,31.97
2023-04-22T16:11:19.146Z,33.61
2023-04-22T16:15:23.744Z,32.47
2023-04-22T16:19:23.914Z,32.46
2023-04-22T16:23:24.038Z,32.02
2023-04-22T16:27:26.948Z,32.25
2023-04-22T16:31:29.762Z,31.13
2023-04-22T16:35:30.053Z,30.65
2023-04-22T16:39:30.392Z,30.57
2023-04-22T16:43:30.570Z,29.83
2023-04-22T16:47:33.452Z,28.38
2023-04-22T16:51:33.703Z,28.69
2023-04-22T16:55:36.311Z,28.43
2023-04-22T16:59:37.535Z,27.91
2023-04-22T17:03:40.931Z,27.77
2023-04-22T17:07:41.627Z,27.34
2023-04-22T17:11:42.636Z,27.11
2023-04-22T17:15:43.548Z,27.28
2023-04-22T17:19:46.593Z,26.88
2023-04-22T17:23:46.888Z,26.28
2023-04-22T17:27:47.055Z,26.36
2023-04-22T17:31:47.366Z,26.63
2023-04-22T17:35:50.296Z,26.12
2023-04-22T17:39:50.507Z,26.16
2023-04-22T17:43:52.793Z,26.05
2023-04-22T17:47:52.979Z,25.90
2023-04-22T17:51:56.271Z,25.71
2023-04-22T17:55:56.545Z,25.38
2023-04-22T17:59:56.875Z,25.31
2023-04-22T18:03:57.190Z,25.20
2023-04-22T18:08:02.688Z,25.39
2023-04-22T18:12:03.387Z,25.23
2023-04-22T18:16:03.616Z,25.18
2023-04-22T18:20:16.686Z,24.83
2023-04-22T18:24:20.738Z,24.80
2023-04-22T18:28:20.909Z,24.68
2023-04-22T18:32:21.279Z,24.71
2023-04-22T18:36:21.674Z,24.46
2023-04-22T18:40:25.081Z,24.50
2023-04-22T18:44:25.539Z,24.58
2023-04-22T18:48:26.148Z,24.57
2023-04-22T18:52:26.709Z,24.46
2023-04-22T18:56:30.253Z,24.29
2023-04-22T19:00:31.277Z,23.91
2023-04-22T19:04:32.362Z,24.31
2023-04-22T19:08:32.854Z,24.39
2023-04-22T19:23:53.853Z,23.93
2023-04-22T19:27:56.238Z,23.96
2023-04-22T19:31:59.217Z,24.12
2023-04-22T19:36:04.042Z,23.76
2023-04-22T19:40:10.494Z,23.87
2023-04-22T19:44:13.810Z,23.85
2023-04-22T19:48:19.119Z,23.91
2023-04-22T19:52:25.682Z,23.93
2023-04-22T19:56:30.586Z,23.47
2023-04-22T20:00:36.362Z,23.46
2023-04-22T20:04:39.946Z,23.16
2023-04-22T20:08:44.523Z,23.23
2023-04-22T20:12:49.672Z,23.05
2023-04-22T20:16:52.387Z,22.60
2023-04-22T20:20:57.844Z,22.45
2023-04-22T20:25:07.958Z,22.54
2023-04-22T20:29:13.277Z,22.73
2023-04-22T20:33:18.762Z,22.78
2023-04-22T20:37:27.579Z,22.31
2023-04-22T20:41:30.966Z,22.30
2023-04-22T20:45:35.258Z,22.19
2023-04-22T20:49:41.824Z,22.03
2023-04-22T20:53:44.539Z,21.79
2023-04-22T20:57:46.008Z,21.91
2023-04-22T21:01:51.892Z,22.10
2023-04-22T21:05:54.422Z,22.06
2023-04-22T21:09:56.768Z,21.78
2023-04-22T21:13:59.235Z,21.82
2023-04-22T21:18:03.898Z,21.89
2023-04-22T21:22:09.431Z,21.85
2023-04-22T21:26:12.470Z,21.73
2023-04-22T21:30:15.740Z,21.59
2023-04-22T21:34:18.814Z,21.55
2023-04-22T21:38:20.149Z,21.23
2023-04-22T21:42:22.838Z,21.21
2023-04-22T21:46:24.786Z,20.97
2023-04-22T21:50:30.509Z,20.76
2023-04-22T21:54:31.041Z,20.92
2023-04-22T21:58:31.840Z,20.89
2023-04-22T22:02:32.695Z,20.68
2023-04-22T22:06:36.765Z,20.75
2023-04-22T22:10:37.842Z,20.61
2023-04-22T22:14:38.843Z,20.48
2023-04-22T22:18:40.200Z,20.14
2023-04-22T22:22:45.277Z,20.42
2023-04-22T22:26:45.869Z,20.11
2023-04-22T22:30:46.563Z,20.37
2023-04-22T22:34:47.115Z,20.59
2023-04-22T22:38:51.007Z,20.84
2023-04-22T22:42:51.515Z,20.80
2023-04-22T22:46:52.283Z,20.82
2023-04-22T22:50:53.216Z,20.66
2023-04-22T22:54:56.532Z,20.68
2023-04-22T22:58:57.068Z,20.66
2023-04-22T23:02:58.236Z,20.57
2023-04-22T23:06:59.142Z,20.65
2023-04-22T23:11:02.674Z,20.70
2023-04-22T23:15:05.144Z,20.49
2023-04-22T23:19:10.675Z,20.44
2023-04-22T23:23:14.249Z,20.39
2023-04-22T23:27:18.746Z,20.52
2023-04-22T23:31:24.244Z,20.80
2023-04-22T23:35:27.449Z,20.70
2023-04-22T23:39:28.330Z,20.70
2023-04-22T23:43:33.411Z,20.72
2023-04-22T23:47:34.304Z,20.76
2023-04-22T23:51:35.463Z,20.53
2023-04-22T23:55:37.345Z,20.63
2023-04-22T23:59:42.716Z,20.89
